Terminal Aerodrome Forecast
Issued by NWS Omaha/Valley, NE

Home | Current Version | Previous Version | Text Only | Print | Product List | Glossary On
Versions: 1 2 3 4 5 6 7 8 9 10 11 12 13 14 15 16 17 18 19 20 21 22 23 24 25 26 27 28 29 30 31 32 33 34 35 36 37 38 39 40 41 42 43 44 45 46 47 48 49 50
000
FTUS43 KOAX 040520
TAFLNK
TAF
KLNK 040520Z 0406/0506 03012KT P6SM BKN080
      TEMPO 0406/0408 3SM TS BKN025CB
     FM041000 03014G22KT P6SM SCT020 BKN050
     FM041400 05013G22KT P6SM BKN035 PROB30 0415/0421 3SM TSRA
      BKN025CB
     FM042100 07012KT P6SM VCTS BKN025CB=

USA.gov is the U.S. government's official web portal to all federal, state and local government web resources and services.